PWSweather.com
Personal Weather Stations
Station Observations
RTINEZ
TerrassaES 08226

TerrassaES 08226

Lat: 41.5762194, Lon: 2.028993700000001

Elevation: 367

Station Type: Watson W8681

www.rtinez.cat

High Low Average
Temperature 84.7°F29.3°C 64.4°F18.0°C 72.7°F22.6°C
Dew Point 68.1°F20.1°C 57.3°F14.1°C 63.3°F17.4°C
Winds 15.9 mph 25.6 kmh Calm Calm 6.0 mph W9.7 kmh W
Wind Gusts 25.1 mph40.4 kmh 1.6 mph2.6 kmh 12.0 mph19.3 kmh
Humidity 94% 42% 74%
Pressure 29.97 in1014.9 mb 29.82 in1009.8 mb -
Precipitation 0.00 in0.0 mm - -
Hour Temp Dew Point Humidity Winds Wind Gusts Pressure Precip Precip Rate Daily Precip Total
12:00 AM 64.8°F18.2°C 63.0°F17.2°C 94% Calm Calm 2.2 mph3.5 kmh 29.90 in1012.5 mb 0.00 in0.0 mm 0.00 in0.0 mm 0.00 in0.0 mm
12:15 AM 64.9°F18.3°C 63.2°F17.3°C 94% 0.7 mph NW1.1 kmh NW 3.8 mph6.1 kmh 29.90 in1012.5 mb 0.00 in0.0 mm 0.00 in0.0 mm 0.00 in0.0 mm
12:30 AM 65.3°F18.5°C 63.6°F17.6°C 94% Calm Calm 2.2 mph3.5 kmh 29.90 in1012.5 mb 0.00 in0.0 mm 0.00 in0.0 mm 0.00 in0.0 mm
12:45 AM 65.3°F18.5°C 63.2°F17.3°C 93% 1.6 mph N2.6 kmh N 2.2 mph3.5 kmh 29.90 in1012.5 mb 0.00 in0.0 mm 0.00 in0.0 mm 0.00 in0.0 mm
01:00 AM 65.7°F18.7°C 63.3°F17.4°C 92% 3.1 mph N5.0 kmh N 4.5 mph7.2 kmh 29.89 in1012.2 mb 0.00 in0.0 mm 0.00 in0.0 mm 0.00 in0.0 mm
01:15 AM 65.8°F18.8°C 62.8°F17.1°C 90% 3.1 mph N5.0 kmh N 4.5 mph7.2 kmh 29.89 in1012.2 mb 0.00 in0.0 mm 0.00 in0.0 mm 0.00 in0.0 mm
01:30 AM 66.0°F18.9°C 62.4°F16.9°C 88% 1.6 mph NNW2.6 kmh NNW 3.8 mph6.1 kmh 29.90 in1012.5 mb 0.00 in0.0 mm 0.00 in0.0 mm 0.00 in0.0 mm
01:45 AM 66.4°F19.1°C 62.1°F16.7°C 86% 4.5 mph WSW7.2 kmh WSW 7.6 mph12.2 kmh 29.90 in1012.5 mb 0.00 in0.0 mm 0.00 in0.0 mm 0.00 in0.0 mm
02:00 AM 66.0°F18.9°C 62.4°F16.9°C 88% 2.2 mph W3.5 kmh W 5.4 mph8.7 kmh 29.89 in1012.2 mb 0.00 in0.0 mm 0.00 in0.0 mm 0.00 in0.0 mm
02:15 AM 65.8°F18.8°C 62.5°F16.9°C 89% 2.2 mph WNW3.5 kmh WNW 4.5 mph7.2 kmh 29.89 in1012.2 mb 0.00 in0.0 mm 0.00 in0.0 mm 0.00 in0.0 mm
02:30 AM 65.8°F18.8°C 62.8°F17.1°C 90% 0.7 mph NW1.1 kmh NW 2.2 mph3.5 kmh 29.88 in1011.9 mb 0.00 in0.0 mm 0.00 in0.0 mm 0.00 in0.0 mm
02:45 AM 66.2°F19.0°C 62.9°F17.2°C 89% Calm Calm 1.6 mph2.6 kmh 29.87 in1011.5 mb 0.00 in0.0 mm 0.00 in0.0 mm 0.00 in0.0 mm
03:00 AM 66.6°F19.2°C 63.2°F17.3°C 89% 1.6 mph W2.6 kmh W 3.8 mph6.1 kmh 29.87 in1011.5 mb 0.00 in0.0 mm 0.00 in0.0 mm 0.00 in0.0 mm
03:15 AM 66.7°F19.3°C 63.4°F17.4°C 89% 3.1 mph W5.0 kmh W 4.5 mph7.2 kmh 29.87 in1011.5 mb 0.00 in0.0 mm 0.00 in0.0 mm 0.00 in0.0 mm
03:30 AM 66.7°F19.3°C 63.1°F17.3°C 88% 0.7 mph W1.1 kmh W 4.5 mph7.2 kmh 29.87 in1011.5 mb 0.00 in0.0 mm 0.00 in0.0 mm 0.00 in0.0 mm
03:45 AM 66.4°F19.1°C 63.1°F17.3°C 89% 2.2 mph W3.5 kmh W 5.4 mph8.7 kmh 29.86 in1011.2 mb 0.00 in0.0 mm 0.00 in0.0 mm 0.00 in0.0 mm
04:00 AM 66.4°F19.1°C 63.4°F17.4°C 90% 3.1 mph WNW5.0 kmh WNW 3.8 mph6.1 kmh 29.86 in1011.2 mb 0.00 in0.0 mm 0.00 in0.0 mm 0.00 in0.0 mm
04:15 AM 66.4°F19.1°C 63.7°F17.6°C 91% 3.1 mph WNW5.0 kmh WNW 5.4 mph8.7 kmh 29.86 in1011.2 mb 0.00 in0.0 mm 0.00 in0.0 mm 0.00 in0.0 mm
04:30 AM 66.0°F18.9°C 63.3°F17.4°C 91% 3.1 mph W5.0 kmh W 5.4 mph8.7 kmh 29.85 in1010.8 mb 0.00 in0.0 mm 0.00 in0.0 mm 0.00 in0.0 mm
04:45 AM 65.8°F18.8°C 63.2°F17.3°C 91% 1.6 mph W2.6 kmh W 4.5 mph7.2 kmh 29.85 in1010.8 mb 0.00 in0.0 mm 0.00 in0.0 mm 0.00 in0.0 mm
05:00 AM 65.3°F18.5°C 62.9°F17.2°C 92% 1.6 mph NW2.6 kmh NW 3.1 mph5.0 kmh 29.84 in1010.5 mb 0.00 in0.0 mm 0.00 in0.0 mm 0.00 in0.0 mm
05:15 AM 64.9°F18.3°C 62.6°F17.0°C 92% 0.7 mph NNW1.1 kmh NNW 3.1 mph5.0 kmh 29.84 in1010.5 mb 0.00 in0.0 mm 0.00 in0.0 mm 0.00 in0.0 mm
05:30 AM 64.8°F18.2°C 62.4°F16.9°C 92% 0.7 mph NW1.1 kmh NW 3.1 mph5.0 kmh 29.85 in1010.8 mb 0.00 in0.0 mm 0.00 in0.0 mm 0.00 in0.0 mm
05:45 AM 64.9°F18.3°C 62.6°F17.0°C 92% 1.6 mph W2.6 kmh W 4.5 mph7.2 kmh 29.84 in1010.5 mb 0.00 in0.0 mm 0.00 in0.0 mm 0.00 in0.0 mm
06:00 AM 64.6°F18.1°C 62.2°F16.8°C 92% 3.1 mph NW5.0 kmh NW 4.5 mph7.2 kmh 29.85 in1010.8 mb 0.00 in0.0 mm 0.00 in0.0 mm 0.00 in0.0 mm
06:15 AM 64.4°F18.0°C 62.0°F16.7°C 92% 3.1 mph NNW5.0 kmh NNW 4.5 mph7.2 kmh 29.85 in1010.8 mb 0.00 in0.0 mm 0.00 in0.0 mm 0.00 in0.0 mm
06:30 AM 64.8°F18.2°C 62.4°F16.9°C 92% 2.2 mph N3.5 kmh N 5.4 mph8.7 kmh 29.84 in1010.5 mb 0.00 in0.0 mm 0.00 in0.0 mm 0.00 in0.0 mm
06:45 AM 65.3°F18.5°C 62.6°F17.0°C 91% 0.7 mph N1.1 kmh N 6.0 mph9.7 kmh 29.84 in1010.5 mb 0.00 in0.0 mm 0.00 in0.0 mm 0.00 in0.0 mm
07:00 AM 66.4°F19.1°C 63.1°F17.3°C 89% Calm Calm 3.8 mph6.1 kmh 29.84 in1010.5 mb 0.00 in0.0 mm 0.00 in0.0 mm 0.00 in0.0 mm
07:15 AM 66.4°F19.1°C 62.4°F16.9°C 87% 3.1 mph W5.0 kmh W 6.0 mph9.7 kmh 29.86 in1011.2 mb 0.00 in0.0 mm 0.00 in0.0 mm 0.00 in0.0 mm
07:30 AM 66.6°F19.2°C 62.6°F17.0°C 87% 8.3 mph NW13.4 kmh NW 15.2 mph24.5 kmh 29.86 in1011.2 mb 0.00 in0.0 mm 0.00 in0.0 mm 0.00 in0.0 mm
07:45 AM 67.6°F19.8°C 62.7°F17.1°C 84% 9.8 mph NW15.8 kmh NW 14.5 mph23.3 kmh 29.86 in1011.2 mb 0.00 in0.0 mm 0.00 in0.0 mm 0.00 in0.0 mm
08:00 AM 69.6°F20.9°C 62.5°F16.9°C 78% 9.2 mph W14.8 kmh W 12.1 mph19.5 kmh 29.87 in1011.5 mb 0.00 in0.0 mm 0.00 in0.0 mm 0.00 in0.0 mm
08:15 AM 69.4°F20.8°C 62.3°F16.8°C 78% 5.4 mph WNW8.7 kmh WNW 10.7 mph17.2 kmh 29.87 in1011.5 mb 0.00 in0.0 mm 0.00 in0.0 mm 0.00 in0.0 mm
08:30 AM 69.6°F20.9°C 62.1°F16.7°C 77% 7.6 mph W12.2 kmh W 15.2 mph24.5 kmh 29.88 in1011.9 mb 0.00 in0.0 mm 0.00 in0.0 mm 0.00 in0.0 mm
08:45 AM 69.4°F20.8°C 62.3°F16.8°C 78% 3.8 mph WNW6.1 kmh WNW 12.1 mph19.5 kmh 29.87 in1011.5 mb 0.00 in0.0 mm 0.00 in0.0 mm 0.00 in0.0 mm
09:00 AM 70.7°F21.5°C 62.0°F16.7°C 74% 4.5 mph W7.2 kmh W 9.8 mph15.8 kmh 29.88 in1011.9 mb 0.00 in0.0 mm 0.00 in0.0 mm 0.00 in0.0 mm
09:15 AM 71.4°F21.9°C 62.3°F16.8°C 73% 9.2 mph W14.8 kmh W 12.1 mph19.5 kmh 29.87 in1011.5 mb 0.00 in0.0 mm 0.00 in0.0 mm 0.00 in0.0 mm
09:30 AM 72.7°F22.6°C 62.8°F17.1°C 71% 3.1 mph WSW5.0 kmh WSW 11.4 mph18.3 kmh 29.89 in1012.2 mb 0.00 in0.0 mm 0.00 in0.0 mm 0.00 in0.0 mm
09:45 AM 72.7°F22.6°C 62.4°F16.9°C 70% 6.9 mph W11.1 kmh W 19.7 mph31.7 kmh 29.89 in1012.2 mb 0.00 in0.0 mm 0.00 in0.0 mm 0.00 in0.0 mm
10:00 AM 73.4°F23.0°C 63.5°F17.5°C 71% 9.8 mph NW15.8 kmh NW 18.3 mph29.5 kmh 29.89 in1012.2 mb 0.00 in0.0 mm 0.00 in0.0 mm 0.00 in0.0 mm
10:15 AM 73.4°F23.0°C 63.9°F17.7°C 72% 11.4 mph WNW18.3 kmh WNW 17.4 mph28.0 kmh 29.88 in1011.9 mb 0.00 in0.0 mm 0.00 in0.0 mm 0.00 in0.0 mm
10:30 AM 73.9°F23.3°C 63.6°F17.6°C 70% 13.6 mph W21.9 kmh W 19.0 mph30.6 kmh 29.88 in1011.9 mb 0.00 in0.0 mm 0.00 in0.0 mm 0.00 in0.0 mm
10:45 AM 74.1°F23.4°C 63.7°F17.6°C 70% 12.1 mph W19.5 kmh W 19.0 mph30.6 kmh 29.88 in1011.9 mb 0.00 in0.0 mm 0.00 in0.0 mm 0.00 in0.0 mm
11:00 AM 75.0°F23.9°C 62.9°F17.2°C 66% 13.6 mph WNW21.9 kmh WNW 17.4 mph28.0 kmh 29.87 in1011.5 mb 0.00 in0.0 mm 0.00 in0.0 mm 0.00 in0.0 mm
11:15 AM 75.6°F24.2°C 62.6°F17.0°C 64% 8.3 mph W13.4 kmh W 16.8 mph27.0 kmh 29.87 in1011.5 mb 0.00 in0.0 mm 0.00 in0.0 mm 0.00 in0.0 mm
11:30 AM 77.2°F25.1°C 63.6°F17.6°C 63% 13.0 mph W20.9 kmh W 19.7 mph31.7 kmh 29.88 in1011.9 mb 0.00 in0.0 mm 0.00 in0.0 mm 0.00 in0.0 mm
11:45 AM 75.7°F24.3°C 62.3°F16.8°C 63% 5.4 mph WNW8.7 kmh WNW 17.4 mph28.0 kmh 29.87 in1011.5 mb 0.00 in0.0 mm 0.00 in0.0 mm 0.00 in0.0 mm
12:00 PM 79.2°F26.2°C 63.6°F17.6°C 59% 8.3 mph WNW13.4 kmh WNW 13.0 mph20.9 kmh 29.87 in1011.5 mb 0.00 in0.0 mm 0.00 in0.0 mm 0.00 in0.0 mm
12:15 PM 79.2°F26.2°C 63.6°F17.6°C 59% 6.9 mph WSW11.1 kmh WSW 15.9 mph25.6 kmh 29.87 in1011.5 mb 0.00 in0.0 mm 0.00 in0.0 mm 0.00 in0.0 mm
12:30 PM 79.7°F26.5°C 63.7°F17.6°C 58% 12.1 mph WSW19.5 kmh WSW 19.0 mph30.6 kmh 29.86 in1011.2 mb 0.00 in0.0 mm 0.00 in0.0 mm 0.00 in0.0 mm
12:45 PM 79.7°F26.5°C 63.7°F17.6°C 58% 6.9 mph WNW11.1 kmh WNW 15.2 mph24.5 kmh 29.85 in1010.8 mb 0.00 in0.0 mm 0.00 in0.0 mm 0.00 in0.0 mm
01:00 PM 81.9°F27.7°C 63.6°F17.6°C 54% 6.0 mph W9.7 kmh W 16.8 mph27.0 kmh 29.86 in1011.2 mb 0.00 in0.0 mm 0.00 in0.0 mm 0.00 in0.0 mm
01:15 PM 79.2°F26.2°C 63.6°F17.6°C 59% 5.4 mph WSW8.7 kmh WSW 16.8 mph27.0 kmh 29.85 in1010.8 mb 0.00 in0.0 mm 0.00 in0.0 mm 0.00 in0.0 mm
01:30 PM 81.9°F27.7°C 62.0°F16.7°C 51% 3.8 mph W6.1 kmh W 16.8 mph27.0 kmh 29.85 in1010.8 mb 0.00 in0.0 mm 0.00 in0.0 mm 0.00 in0.0 mm
01:45 PM 81.9°F27.7°C 62.6°F17.0°C 52% 15.9 mph W25.6 kmh W 19.7 mph31.7 kmh 29.84 in1010.5 mb 0.00 in0.0 mm 0.00 in0.0 mm 0.00 in0.0 mm
02:00 PM 81.3°F27.4°C 63.1°F17.3°C 54% 13.6 mph WNW21.9 kmh WNW 19.0 mph30.6 kmh 29.84 in1010.5 mb 0.00 in0.0 mm 0.00 in0.0 mm 0.00 in0.0 mm
02:15 PM 81.9°F27.7°C 63.1°F17.3°C 53% 9.8 mph W15.8 kmh W 19.7 mph31.7 kmh 29.84 in1010.5 mb 0.00 in0.0 mm 0.00 in0.0 mm 0.00 in0.0 mm
02:30 PM 82.8°F28.2°C 61.1°F16.2°C 48% 8.3 mph W13.4 kmh W 22.1 mph35.6 kmh 29.83 in1010.2 mb 0.00 in0.0 mm 0.00 in0.0 mm 0.00 in0.0 mm
02:45 PM 83.1°F28.4°C 61.4°F16.3°C 48% 13.6 mph WNW21.9 kmh WNW 25.1 mph40.4 kmh 29.83 in1010.2 mb 0.00 in0.0 mm 0.00 in0.0 mm 0.00 in0.0 mm
03:00 PM 82.6°F28.1°C 61.5°F16.4°C 49% 14.5 mph W23.3 kmh W 22.8 mph36.7 kmh 29.84 in1010.5 mb 0.00 in0.0 mm 0.00 in0.0 mm 0.00 in0.0 mm
03:15 PM 83.3°F28.5°C 60.4°F15.8°C 46% 15.2 mph WNW24.5 kmh WNW 18.3 mph29.5 kmh 29.83 in1010.2 mb 0.00 in0.0 mm 0.00 in0.0 mm 0.00 in0.0 mm
03:30 PM 83.3°F28.5°C 62.8°F17.1°C 50% 9.2 mph WNW14.8 kmh WNW 18.3 mph29.5 kmh 29.82 in1009.8 mb 0.00 in0.0 mm 0.00 in0.0 mm 0.00 in0.0 mm
03:45 PM 82.4°F28.0°C 61.9°F16.6°C 50% 8.3 mph W13.4 kmh W 15.2 mph24.5 kmh 29.82 in1009.8 mb 0.00 in0.0 mm 0.00 in0.0 mm 0.00 in0.0 mm
04:00 PM 84.7°F29.3°C 59.2°F15.1°C 42% 9.8 mph NW15.8 kmh NW 13.6 mph21.9 kmh 29.83 in1010.2 mb 0.00 in0.0 mm 0.00 in0.0 mm 0.00 in0.0 mm
04:15 PM 82.8°F28.2°C 58.7°F14.8°C 44% 3.8 mph NW6.1 kmh NW 15.9 mph25.6 kmh 29.83 in1010.2 mb 0.00 in0.0 mm 0.00 in0.0 mm 0.00 in0.0 mm
04:30 PM 82.4°F28.0°C 60.2°F15.7°C 47% 7.6 mph W12.2 kmh W 19.0 mph30.6 kmh 29.83 in1010.2 mb 0.00 in0.0 mm 0.00 in0.0 mm 0.00 in0.0 mm
04:45 PM 83.1°F28.4°C 64.3°F17.9°C 53% 10.7 mph W17.2 kmh W 21.3 mph34.3 kmh 29.84 in1010.5 mb 0.00 in0.0 mm 0.00 in0.0 mm 0.00 in0.0 mm
05:00 PM 82.4°F28.0°C 64.1°F17.8°C 54% 7.6 mph WSW12.2 kmh WSW 17.4 mph28.0 kmh 29.84 in1010.5 mb 0.00 in0.0 mm 0.00 in0.0 mm 0.00 in0.0 mm
05:15 PM 81.3°F27.4°C 65.2°F18.4°C 58% 10.7 mph W17.2 kmh W 19.7 mph31.7 kmh 29.85 in1010.8 mb 0.00 in0.0 mm 0.00 in0.0 mm 0.00 in0.0 mm
05:30 PM 80.8°F27.1°C 66.6°F19.2°C 62% 14.5 mph WSW23.3 kmh WSW 22.1 mph35.6 kmh 29.85 in1010.8 mb 0.00 in0.0 mm 0.00 in0.0 mm 0.00 in0.0 mm
05:45 PM 79.0°F26.1°C 67.1°F19.5°C 67% 12.1 mph WNW19.5 kmh WNW 18.3 mph29.5 kmh 29.85 in1010.8 mb 0.00 in0.0 mm 0.00 in0.0 mm 0.00 in0.0 mm
06:00 PM 78.6°F25.9°C 68.1°F20.1°C 70% 15.2 mph W24.5 kmh W 18.3 mph29.5 kmh 29.85 in1010.8 mb 0.00 in0.0 mm 0.00 in0.0 mm 0.00 in0.0 mm
06:15 PM 77.2°F25.1°C 66.7°F19.3°C 70% 13.6 mph W21.9 kmh W 19.7 mph31.7 kmh 29.85 in1010.8 mb 0.00 in0.0 mm 0.00 in0.0 mm 0.00 in0.0 mm
06:30 PM 77.0°F25.0°C 67.7°F19.8°C 73% 8.3 mph W13.4 kmh W 16.8 mph27.0 kmh 29.85 in1010.8 mb 0.00 in0.0 mm 0.00 in0.0 mm 0.00 in0.0 mm
06:45 PM 75.0°F23.9°C 66.6°F19.2°C 75% 10.7 mph W17.2 kmh W 20.6 mph33.2 kmh 29.87 in1011.5 mb 0.00 in0.0 mm 0.00 in0.0 mm 0.00 in0.0 mm
07:00 PM 74.7°F23.7°C 66.2°F19.0°C 75% 3.8 mph NW6.1 kmh NW 12.1 mph19.5 kmh 29.87 in1011.5 mb 0.00 in0.0 mm 0.00 in0.0 mm 0.00 in0.0 mm
07:15 PM 74.1°F23.4°C 65.7°F18.7°C 75% 5.4 mph W8.7 kmh W 12.1 mph19.5 kmh 29.87 in1011.5 mb 0.00 in0.0 mm 0.00 in0.0 mm 0.00 in0.0 mm
07:30 PM 73.9°F23.3°C 65.6°F18.7°C 75% 9.2 mph WNW14.8 kmh WNW 14.5 mph23.3 kmh 29.88 in1011.9 mb 0.00 in0.0 mm 0.00 in0.0 mm 0.00 in0.0 mm
07:45 PM 73.8°F23.2°C 65.4°F18.6°C 75% 6.0 mph WNW9.7 kmh WNW 13.6 mph21.9 kmh 29.89 in1012.2 mb 0.00 in0.0 mm 0.00 in0.0 mm 0.00 in0.0 mm
08:00 PM 73.4°F23.0°C 65.0°F18.3°C 75% 9.8 mph WNW15.8 kmh WNW 17.4 mph28.0 kmh 29.90 in1012.5 mb 0.00 in0.0 mm 0.00 in0.0 mm 0.00 in0.0 mm
08:15 PM 73.4°F23.0°C 65.0°F18.3°C 75% 3.8 mph W6.1 kmh W 14.5 mph23.3 kmh 29.91 in1012.9 mb 0.00 in0.0 mm 0.00 in0.0 mm 0.00 in0.0 mm
08:30 PM 73.4°F23.0°C 65.4°F18.6°C 76% 8.3 mph W13.4 kmh W 13.0 mph20.9 kmh 29.91 in1012.9 mb 0.00 in0.0 mm 0.00 in0.0 mm 0.00 in0.0 mm
08:45 PM 73.2°F22.9°C 65.2°F18.4°C 76% 3.8 mph SW6.1 kmh SW 7.6 mph12.2 kmh 29.91 in1012.9 mb 0.00 in0.0 mm 0.00 in0.0 mm 0.00 in0.0 mm
09:00 PM 72.9°F22.7°C 65.6°F18.7°C 78% 3.8 mph WNW6.1 kmh WNW 15.2 mph24.5 kmh 29.92 in1013.2 mb 0.00 in0.0 mm 0.00 in0.0 mm 0.00 in0.0 mm
09:15 PM 72.7°F22.6°C 65.5°F18.6°C 78% 3.8 mph WSW6.1 kmh WSW 9.8 mph15.8 kmh 29.93 in1013.5 mb 0.00 in0.0 mm 0.00 in0.0 mm 0.00 in0.0 mm
09:30 PM 72.5°F22.5°C 64.9°F18.3°C 77% 3.1 mph W5.0 kmh W 7.6 mph12.2 kmh 29.93 in1013.5 mb 0.00 in0.0 mm 0.00 in0.0 mm 0.00 in0.0 mm
09:45 PM 72.1°F22.3°C 65.3°F18.5°C 79% 2.2 mph WNW3.5 kmh WNW 6.9 mph11.1 kmh 29.92 in1013.2 mb 0.00 in0.0 mm 0.00 in0.0 mm 0.00 in0.0 mm
10:00 PM 72.3°F22.4°C 64.0°F17.8°C 75% 3.8 mph WNW6.1 kmh WNW 6.9 mph11.1 kmh 29.93 in1013.5 mb 0.00 in0.0 mm 0.00 in0.0 mm 0.00 in0.0 mm
10:15 PM 72.9°F22.7°C 57.3°F14.1°C 58% 3.1 mph NW5.0 kmh NW 8.3 mph13.4 kmh 29.94 in1013.9 mb 0.00 in0.0 mm 0.00 in0.0 mm 0.00 in0.0 mm
10:30 PM 73.0°F22.8°C 61.5°F16.4°C 67% 2.2 mph ENE3.5 kmh ENE 6.9 mph11.1 kmh 29.95 in1014.2 mb 0.00 in0.0 mm 0.00 in0.0 mm 0.00 in0.0 mm
10:45 PM 70.9°F21.6°C 64.4°F18.0°C 80% 3.8 mph E6.1 kmh E 6.0 mph9.7 kmh 29.96 in1014.6 mb 0.00 in0.0 mm 0.00 in0.0 mm 0.00 in0.0 mm
11:00 PM 69.4°F20.8°C 64.8°F18.2°C 85% 7.6 mph ESE12.2 kmh ESE 11.4 mph18.3 kmh 29.96 in1014.6 mb 0.00 in0.0 mm 0.00 in0.0 mm 0.00 in0.0 mm
11:15 PM 69.1°F20.6°C 64.7°F18.2°C 86% 6.0 mph SSE9.7 kmh SSE 10.7 mph17.2 kmh 29.96 in1014.6 mb 0.00 in0.0 mm 0.00 in0.0 mm 0.00 in0.0 mm
11:30 PM 68.5°F20.3°C 62.9°F17.2°C 82% 3.8 mph ESE6.1 kmh ESE 9.8 mph15.8 kmh 29.96 in1014.6 mb 0.00 in0.0 mm 0.00 in0.0 mm 0.00 in0.0 mm
11:45 PM 68.4°F20.2°C 60.9°F16.1°C 77% 3.1 mph SE5.0 kmh SE 8.3 mph13.4 kmh 29.97 in1014.9 mb 0.00 in0.0 mm 0.00 in0.0 mm 0.00 in0.0 mm